sensor_id;sensor_type;location;lat;lon;timestamp;temperature;humidity
42803;DHT22;28447;48.682;9.022;2023-07-29T04:02:57;16.60;99.90
42803;DHT22;28447;48.682;9.022;2023-07-29T04:05:23;16.60;99.90
42803;DHT22;28447;48.682;9.022;2023-07-29T04:07:48;16.60;99.90
42803;DHT22;28447;48.682;9.022;2023-07-29T04:10:14;16.60;99.90
42803;DHT22;28447;48.682;9.022;2023-07-29T04:12:39;16.60;99.90
42803;DHT22;28447;48.682;9.022;2023-07-29T04:15:05;16.60;99.90
42803;DHT22;28447;48.682;9.022;2023-07-29T04:17:31;16.60;99.90
42803;DHT22;28447;48.682;9.022;2023-07-29T04:19:57;16.60;99.90
42803;DHT22;28447;48.682;9.022;2023-07-29T04:22:22;16.60;99.90
42803;DHT22;28447;48.682;9.022;2023-07-29T04:24:48;16.60;99.90
42803;DHT22;28447;48.682;9.022;2023-07-29T04:27:14;16.60;99.90
42803;DHT22;28447;48.682;9.022;2023-07-29T04:29:39;16.60;99.90
42803;DHT22;28447;48.682;9.022;2023-07-29T04:32:05;16.70;99.90
42803;DHT22;28447;48.682;9.022;2023-07-29T04:34:31;16.70;99.90
42803;DHT22;28447;48.682;9.022;2023-07-29T04:36:57;16.60;99.90
42803;DHT22;28447;48.682;9.022;2023-07-29T04:39:23;16.60;99.90
42803;DHT22;28447;48.682;9.022;2023-07-29T04:41:48;16.70;99.90
42803;DHT22;28447;48.682;9.022;2023-07-29T04:44:14;16.60;99.90
42803;DHT22;28447;48.682;9.022;2023-07-29T04:46:40;16.60;99.90
42803;DHT22;28447;48.682;9.022;2023-07-29T04:49:05;16.60;99.90
42803;DHT22;28447;48.682;9.022;2023-07-29T04:51:31;16.60;99.90
42803;DHT22;28447;48.682;9.022;2023-07-29T04:53:59;16.60;99.90
42803;DHT22;28447;48.682;9.022;2023-07-29T04:56:25;16.60;99.90
42803;DHT22;28447;48.682;9.022;2023-07-29T04:58:51;16.60;99.90
42803;DHT22;28447;48.682;9.022;2023-07-29T05:01:17;16.60;99.90
42803;DHT22;28447;48.682;9.022;2023-07-29T05:03:43;16.60;99.90
42803;DHT22;28447;48.682;9.022;2023-07-29T05:06:09;16.60;99.90
42803;DHT22;28447;48.682;9.022;2023-07-29T05:08:34;16.60;99.90
42803;DHT22;28447;48.682;9.022;2023-07-29T05:11:00;16.60;99.90
42803;DHT22;28447;48.682;9.022;2023-07-29T05:13:26;16.60;99.90
42803;DHT22;28447;48.682;9.022;2023-07-29T05:15:51;16.70;99.90
42803;DHT22;28447;48.682;9.022;2023-07-29T05:18:17;16.80;99.90
42803;DHT22;28447;48.682;9.022;2023-07-29T05:20:43;16.80;99.90
42803;DHT22;28447;48.682;9.022;2023-07-29T05:23:09;16.90;99.90
42803;DHT22;28447;48.682;9.022;2023-07-29T05:25:34;17.00;99.90
42803;DHT22;28447;48.682;9.022;2023-07-29T05:28:01;17.00;99.90
42803;DHT22;28447;48.682;9.022;2023-07-29T05:30:27;17.10;99.90
42803;DHT22;28447;48.682;9.022;2023-07-29T05:32:57;17.20;99.90
42803;DHT22;28447;48.682;9.022;2023-07-29T05:35:23;17.30;99.90
42803;DHT22;28447;48.682;9.022;2023-07-29T05:37:48;17.30;99.90
42803;DHT22;28447;48.682;9.022;2023-07-29T05:40:14;17.40;99.90
42803;DHT22;28447;48.682;9.022;2023-07-29T05:42:40;17.50;99.90
42803;DHT22;28447;48.682;9.022;2023-07-29T05:45:06;17.50;99.90
42803;DHT22;28447;48.682;9.022;2023-07-29T05:47:31;17.60;99.90
42803;DHT22;28447;48.682;9.022;2023-07-29T05:49:57;17.60;99.90
42803;DHT22;28447;48.682;9.022;2023-07-29T05:52:23;17.70;99.90
42803;DHT22;28447;48.682;9.022;2023-07-29T05:54:48;17.80;99.90
42803;DHT22;28447;48.682;9.022;2023-07-29T05:57:14;18.00;99.90
42803;DHT22;28447;48.682;9.022;2023-07-29T05:59:40;18.00;99.90
42803;DHT22;28447;48.682;9.022;2023-07-29T06:02:06;18.00;99.90
42803;DHT22;28447;48.682;9.022;2023-07-29T06:04:31;18.10;99.90
42803;DHT22;28447;48.682;9.022;2023-07-29T06:06:57;18.10;99.90
42803;DHT22;28447;48.682;9.022;2023-07-29T06:09:23;18.20;99.90
42803;DHT22;28447;48.682;9.022;2023-07-29T06:11:50;18.30;99.90
42803;DHT22;28447;48.682;9.022;2023-07-29T06:14:16;18.30;99.90
42803;DHT22;28447;48.682;9.022;2023-07-29T06:16:42;18.50;99.90
42803;DHT22;28447;48.682;9.022;2023-07-29T06:19:07;18.60;99.90
42803;DHT22;28447;48.682;9.022;2023-07-29T06:21:34;18.70;99.90
42803;DHT22;28447;48.682;9.022;2023-07-29T06:24:00;18.80;99.90
42803;DHT22;28447;48.682;9.022;2023-07-29T06:26:26;18.80;99.90
42803;DHT22;28447;48.682;9.022;2023-07-29T06:28:51;18.60;99.90
42803;DHT22;28447;48.682;9.022;2023-07-29T06:31:17;18.60;99.90
42803;DHT22;28447;48.682;9.022;2023-07-29T06:33:43;18.50;99.90
42803;DHT22;28447;48.682;9.022;2023-07-29T06:36:08;18.30;99.90
42803;DHT22;28447;48.682;9.022;2023-07-29T06:38:34;18.20;99.90
42803;DHT22;28447;48.682;9.022;2023-07-29T06:40:59;18.20;99.90
42803;DHT22;28447;48.682;9.022;2023-07-29T06:43:25;18.00;99.90
42803;DHT22;28447;48.682;9.022;2023-07-29T06:45:51;18.00;99.90
42803;DHT22;28447;48.682;9.022;2023-07-29T06:48:17;18.00;99.90
42803;DHT22;28447;48.682;9.022;2023-07-29T06:50:44;17.90;99.90
42803;DHT22;28447;48.682;9.022;2023-07-29T06:53:10;17.90;99.90
42803;DHT22;28447;48.682;9.022;2023-07-29T06:55:35;17.80;99.90
42803;DHT22;28447;48.682;9.022;2023-07-29T06:58:01;17.80;99.90
42803;DHT22;28447;48.682;9.022;2023-07-29T07:00:27;17.80;99.90
42803;DHT22;28447;48.682;9.022;2023-07-29T07:02:53;17.70;99.90
42803;DHT22;28447;48.682;9.022;2023-07-29T07:05:19;17.70;99.90
42803;DHT22;28447;48.682;9.022;2023-07-29T07:10:10;17.60;99.90
42803;DHT22;28447;48.682;9.022;2023-07-29T07:12:36;17.50;99.90
42803;DHT22;28447;48.682;9.022;2023-07-29T07:15:01;17.50;99.90
42803;DHT22;28447;48.682;9.022;2023-07-29T07:17:27;17.50;99.90
42803;DHT22;28447;48.682;9.022;2023-07-29T07:19:53;17.50;99.90
42803;DHT22;28447;48.682;9.022;2023-07-29T07:22:18;17.50;99.90
42803;DHT22;28447;48.682;9.022;2023-07-29T07:24:44;17.50;99.90
42803;DHT22;28447;48.682;9.022;2023-07-29T07:27:10;17.60;99.90
42803;DHT22;28447;48.682;9.022;2023-07-29T07:29:35;17.60;99.90
42803;DHT22;28447;48.682;9.022;2023-07-29T07:32:01;17.70;99.90
42803;DHT22;28447;48.682;9.022;2023-07-29T07:34:27;17.90;99.90
42803;DHT22;28447;48.682;9.022;2023-07-29T07:36:53;17.90;99.90
42803;DHT22;28447;48.682;9.022;2023-07-29T07:39:19;17.90;99.90
42803;DHT22;28447;48.682;9.022;2023-07-29T07:41:44;17.90;99.90
42803;DHT22;28447;48.682;9.022;2023-07-29T07:44:10;17.90;99.90
42803;DHT22;28447;48.682;9.022;2023-07-29T07:46:38;17.90;99.90
42803;DHT22;28447;48.682;9.022;2023-07-29T07:49:03;18.00;99.90
42803;DHT22;28447;48.682;9.022;2023-07-29T07:51:29;18.20;99.90
42803;DHT22;28447;48.682;9.022;2023-07-29T07:53:55;18.20;99.90
42803;DHT22;28447;48.682;9.022;2023-07-29T07:56:20;18.20;99.90
42803;DHT22;28447;48.682;9.022;2023-07-29T07:58:46;18.40;99.90
42803;DHT22;28447;48.682;9.022;2023-07-29T08:01:12;18.40;99.90
42803;DHT22;28447;48.682;9.022;2023-07-29T08:03:37;18.60;99.90
42803;DHT22;28447;48.682;9.022;2023-07-29T08:06:04;18.60;99.90
42803;DHT22;28447;48.682;9.022;2023-07-29T08:08:30;18.70;99.90
42803;DHT22;28447;48.682;9.022;2023-07-29T08:10:56;18.70;99.90
42803;DHT22;28447;48.682;9.022;2023-07-29T08:13:23;18.80;99.90
42803;DHT22;28447;48.682;9.022;2023-07-29T08:15:52;18.80;99.90
42803;DHT22;28447;48.682;9.022;2023-07-29T08:18:18;18.90;99.90
42803;DHT22;28447;48.682;9.022;2023-07-29T08:20:58;18.90;99.90
42803;DHT22;28447;48.682;9.022;2023-07-29T08:23:25;18.90;99.90
42803;DHT22;28447;48.682;9.022;2023-07-29T08:25:55;19.20;99.90
42803;DHT22;28447;48.682;9.022;2023-07-29T08:28:22;19.30;99.90
42803;DHT22;28447;48.682;9.022;2023-07-29T08:30:48;19.60;99.90
42803;DHT22;28447;48.682;9.022;2023-07-29T08:33:14;19.70;99.90
42803;DHT22;28447;48.682;9.022;2023-07-29T08:35:40;19.80;99.90
42803;DHT22;28447;48.682;9.022;2023-07-29T08:38:05;20.30;99.90
42803;DHT22;28447;48.682;9.022;2023-07-29T08:40:32;20.30;99.90
42803;DHT22;28447;48.682;9.022;2023-07-29T08:43:03;20.60;99.90
42803;DHT22;28447;48.682;9.022;2023-07-29T08:45:32;20.30;99.90
42803;DHT22;28447;48.682;9.022;2023-07-29T08:48:02;20.30;99.90
42803;DHT22;28447;48.682;9.022;2023-07-29T08:50:28;20.30;99.90
42803;DHT22;28447;48.682;9.022;2023-07-29T08:52:55;20.20;99.90
42803;DHT22;28447;48.682;9.022;2023-07-29T08:55:21;20.20;99.90
42803;DHT22;28447;48.682;9.022;2023-07-29T08:57:47;20.60;99.90
42803;DHT22;28447;48.682;9.022;2023-07-29T09:00:13;20.50;99.90
42803;DHT22;28447;48.682;9.022;2023-07-29T09:02:38;20.30;99.90
42803;DHT22;28447;48.682;9.022;2023-07-29T09:05:04;20.50;99.90
42803;DHT22;28447;48.682;9.022;2023-07-29T09:07:31;20.60;99.90
42803;DHT22;28447;48.682;9.022;2023-07-29T09:09:58;20.60;99.90
42803;DHT22;28447;48.682;9.022;2023-07-29T09:12:23;20.70;99.90
42803;DHT22;28447;48.682;9.022;2023-07-29T09:14:52;20.70;99.90
42803;DHT22;28447;48.682;9.022;2023-07-29T09:17:18;20.90;99.90
42803;DHT22;28447;48.682;9.022;2023-07-29T09:19:48;21.30;99.90
42803;DHT22;28447;48.682;9.022;2023-07-29T09:22:18;21.90;99.90
42803;DHT22;28447;48.682;9.022;2023-07-29T09:24:45;21.90;99.90
42803;DHT22;28447;48.682;9.022;2023-07-29T09:27:24;21.80;99.90
42803;DHT22;28447;48.682;9.022;2023-07-29T09:29:50;22.10;99.90
42803;DHT22;28447;48.682;9.022;2023-07-29T09:32:23;22.50;99.90
42803;DHT22;28447;48.682;9.022;2023-07-29T09:34:49;22.30;99.90
42803;DHT22;28447;48.682;9.022;2023-07-29T09:37:16;22.20;99.90
42803;DHT22;28447;48.682;9.022;2023-07-29T09:39:46;21.90;99.90
42803;DHT22;28447;48.682;9.022;2023-07-29T09:42:20;22.10;99.90
42803;DHT22;28447;48.682;9.022;2023-07-29T09:44:48;22.10;99.90
42803;DHT22;28447;48.682;9.022;2023-07-29T09:47:24;22.10;99.90
42803;DHT22;28447;48.682;9.022;2023-07-29T09:49:51;22.30;99.90
42803;DHT22;28447;48.682;9.022;2023-07-29T09:52:18;22.30;99.90
42803;DHT22;28447;48.682;9.022;2023-07-29T09:54:45;22.50;99.90
42803;DHT22;28447;48.682;9.022;2023-07-29T09:57:15;23.10;99.90
42803;DHT22;28447;48.682;9.022;2023-07-29T09:59:41;23.90;99.90
42803;DHT22;28447;48.682;9.022;2023-07-29T10:02:15;23.60;99.90
42803;DHT22;28447;48.682;9.022;2023-07-29T10:04:41;24.20;99.90
42803;DHT22;28447;48.682;9.022;2023-07-29T10:07:12;24.00;99.90
42803;DHT22;28447;48.682;9.022;2023-07-29T10:09:41;23.50;99.90
42803;DHT22;28447;48.682;9.022;2023-07-29T10:12:07;23.30;99.90
42803;DHT22;28447;48.682;9.022;2023-07-29T10:14:35;23.60;99.90
42803;DHT22;28447;48.682;9.022;2023-07-29T10:17:02;24.00;99.90
42803;DHT22;28447;48.682;9.022;2023-07-29T10:19:28;24.00;99.90
42803;DHT22;28447;48.682;9.022;2023-07-29T10:21:56;23.90;99.90
42803;DHT22;28447;48.682;9.022;2023-07-29T10:24:25;23.80;99.90
42803;DHT22;28447;48.682;9.022;2023-07-29T10:26:58;23.90;99.90
42803;DHT22;28447;48.682;9.022;2023-07-29T10:29:25;24.30;99.90
42803;DHT22;28447;48.682;9.022;2023-07-29T10:31:54;24.50;99.90
42803;DHT22;28447;48.682;9.022;2023-07-29T10:34:23;24.40;99.90
42803;DHT22;28447;48.682;9.022;2023-07-29T10:36:50;24.60;99.90
42803;DHT22;28447;48.682;9.022;2023-07-29T10:39:16;24.90;99.90
42803;DHT22;28447;48.682;9.022;2023-07-29T10:41:59;24.90;99.90
42803;DHT22;28447;48.682;9.022;2023-07-29T10:44:49;25.10;99.90
42803;DHT22;28447;48.682;9.022;2023-07-29T10:47:20;24.70;99.90
42803;DHT22;28447;48.682;9.022;2023-07-29T10:49:49;24.20;99.90
42803;DHT22;28447;48.682;9.022;2023-07-29T10:52:16;24.90;99.90
42803;DHT22;28447;48.682;9.022;2023-07-29T10:54:43;25.30;99.90
42803;DHT22;28447;48.682;9.022;2023-07-29T10:57:30;25.50;99.90
42803;DHT22;28447;48.682;9.022;2023-07-29T10:59:56;25.30;99.90
42803;DHT22;28447;48.682;9.022;2023-07-29T11:02:37;25.40;99.90
42803;DHT22;28447;48.682;9.022;2023-07-29T11:05:08;25.90;99.90
42803;DHT22;28447;48.682;9.022;2023-07-29T11:07:49;26.20;99.90
42803;DHT22;28447;48.682;9.022;2023-07-29T11:10:16;26.10;99.90
42803;DHT22;28447;48.682;9.022;2023-07-29T11:15:15;25.30;99.90
42803;DHT22;28447;48.682;9.022;2023-07-29T11:20:14;24.90;99.90
42803;DHT22;28447;48.682;9.022;2023-07-29T11:22:40;24.80;99.90
42803;DHT22;28447;48.682;9.022;2023-07-29T11:25:11;24.80;99.90
42803;DHT22;28447;48.682;9.022;2023-07-29T11:27:38;24.90;99.90
42803;DHT22;28447;48.682;9.022;2023-07-29T11:30:08;24.70;99.90
42803;DHT22;28447;48.682;9.022;2023-07-29T11:32:35;24.50;99.90
42803;DHT22;28447;48.682;9.022;2023-07-29T11:35:09;24.70;99.90
42803;DHT22;28447;48.682;9.022;2023-07-29T11:37:37;25.40;99.90
42803;DHT22;28447;48.682;9.022;2023-07-29T11:40:04;25.10;99.90
42803;DHT22;28447;48.682;9.022;2023-07-29T11:42:32;25.90;99.90
42803;DHT22;28447;48.682;9.022;2023-07-29T11:44:59;25.60;99.90
42803;DHT22;28447;48.682;9.022;2023-07-29T11:47:25;25.40;99.90
42803;DHT22;28447;48.682;9.022;2023-07-29T11:49:51;25.60;99.90
42803;DHT22;28447;48.682;9.022;2023-07-29T11:52:18;25.30;99.90
42803;DHT22;28447;48.682;9.022;2023-07-29T11:54:49;25.10;99.90
42803;DHT22;28447;48.682;9.022;2023-07-29T11:57:16;24.90;99.90
42803;DHT22;28447;48.682;9.022;2023-07-29T11:59:42;24.80;99.90
42803;DHT22;28447;48.682;9.022;2023-07-29T12:02:13;25.00;99.90
42803;DHT22;28447;48.682;9.022;2023-07-29T12:04:40;25.30;99.90
42803;DHT22;28447;48.682;9.022;2023-07-29T12:07:06;25.40;99.90
42803;DHT22;28447;48.682;9.022;2023-07-29T12:09:33;25.00;99.90
42803;DHT22;28447;48.682;9.022;2023-07-29T12:12:00;24.40;99.90
42803;DHT22;28447;48.682;9.022;2023-07-29T12:14:29;24.60;99.90
42803;DHT22;28447;48.682;9.022;2023-07-29T12:16:55;25.00;99.90
42803;DHT22;28447;48.682;9.022;2023-07-29T12:19:21;25.10;99.90
42803;DHT22;28447;48.682;9.022;2023-07-29T12:21:50;25.30;99.90
42803;DHT22;28447;48.682;9.022;2023-07-29T12:24:16;26.20;99.90
42803;DHT22;28447;48.682;9.022;2023-07-29T12:26:42;25.60;99.90
42803;DHT22;28447;48.682;9.022;2023-07-29T12:29:18;25.70;99.90
42803;DHT22;28447;48.682;9.022;2023-07-29T12:31:48;26.20;99.90
42803;DHT22;28447;48.682;9.022;2023-07-29T12:34:21;26.80;99.90
42803;DHT22;28447;48.682;9.022;2023-07-29T12:36:49;27.30;99.90
42803;DHT22;28447;48.682;9.022;2023-07-29T12:39:28;27.10;99.90
42803;DHT22;28447;48.682;9.022;2023-07-29T12:41:56;27.70;99.90
42803;DHT22;28447;48.682;9.022;2023-07-29T12:44:27;28.60;99.10
42803;DHT22;28447;48.682;9.022;2023-07-29T12:46:53;26.90;99.90
42803;DHT22;28447;48.682;9.022;2023-07-29T12:49:18;26.80;99.90
42803;DHT22;28447;48.682;9.022;2023-07-29T12:51:45;27.00;99.90
42803;DHT22;28447;48.682;9.022;2023-07-29T12:54:11;27.40;99.90
42803;DHT22;28447;48.682;9.022;2023-07-29T12:56:37;27.40;99.90
42803;DHT22;28447;48.682;9.022;2023-07-29T12:59:02;26.00;99.70
42803;DHT22;28447;48.682;9.022;2023-07-29T13:01:29;26.10;99.90
42803;DHT22;28447;48.682;9.022;2023-07-29T13:03:54;25.80;99.90
42803;DHT22;28447;48.682;9.022;2023-07-29T13:06:21;25.90;99.90
42803;DHT22;28447;48.682;9.022;2023-07-29T13:08:47;26.40;99.90
42803;DHT22;28447;48.682;9.022;2023-07-29T13:11:14;26.30;99.90
42803;DHT22;28447;48.682;9.022;2023-07-29T13:13:40;26.70;99.90
42803;DHT22;28447;48.682;9.022;2023-07-29T13:16:05;26.70;99.90
42803;DHT22;28447;48.682;9.022;2023-07-29T13:18:32;26.10;99.60
42803;DHT22;28447;48.682;9.022;2023-07-29T13:20:57;26.60;99.90
42803;DHT22;28447;48.682;9.022;2023-07-29T13:23:24;25.80;99.50
42803;DHT22;28447;48.682;9.022;2023-07-29T13:25:49;25.60;99.90
42803;DHT22;28447;48.682;9.022;2023-07-29T13:28:16;25.30;99.90
42803;DHT22;28447;48.682;9.022;2023-07-29T13:30:42;25.40;99.90
42803;DHT22;28447;48.682;9.022;2023-07-29T13:33:08;25.00;99.80
42803;DHT22;28447;48.682;9.022;2023-07-29T13:35:33;25.50;99.90
42803;DHT22;28447;48.682;9.022;2023-07-29T13:38:00;25.50;99.60
42803;DHT22;28447;48.682;9.022;2023-07-29T13:40:26;25.50;99.60
42803;DHT22;28447;48.682;9.022;2023-07-29T13:42:52;25.40;99.90
42803;DHT22;28447;48.682;9.022;2023-07-29T13:45:18;25.80;99.20
42803;DHT22;28447;48.682;9.022;2023-07-29T13:47:44;26.10;99.90
42803;DHT22;28447;48.682;9.022;2023-07-29T13:50:10;25.60;99.30
42803;DHT22;28447;48.682;9.022;2023-07-29T13:52:36;25.30;99.90
42803;DHT22;28447;48.682;9.022;2023-07-29T13:55:03;25.20;99.80
42803;DHT22;28447;48.682;9.022;2023-07-29T13:57:29;25.40;99.80
42803;DHT22;28447;48.682;9.022;2023-07-29T13:59:55;25.30;99.70
42803;DHT22;28447;48.682;9.022;2023-07-29T14:02:21;25.40;99.90
42803;DHT22;28447;48.682;9.022;2023-07-29T14:04:46;25.30;99.90
42803;DHT22;28447;48.682;9.022;2023-07-29T14:07:12;24.80;99.90
42803;DHT22;28447;48.682;9.022;2023-07-29T14:09:37;24.90;99.90
42803;DHT22;28447;48.682;9.022;2023-07-29T14:12:04;24.70;99.90
42803;DHT22;28447;48.682;9.022;2023-07-29T14:14:30;24.50;99.90
42803;DHT22;28447;48.682;9.022;2023-07-29T14:16:56;24.80;99.90
42803;DHT22;28447;48.682;9.022;2023-07-29T14:19:22;24.70;99.70
42803;DHT22;28447;48.682;9.022;2023-07-29T14:21:51;24.80;99.90
42803;DHT22;28447;48.682;9.022;2023-07-29T14:24:16;24.60;99.90
42803;DHT22;28447;48.682;9.022;2023-07-29T14:26:42;25.20;99.90
42803;DHT22;28447;48.682;9.022;2023-07-29T14:29:08;26.10;99.20
42803;DHT22;28447;48.682;9.022;2023-07-29T14:31:33;26.50;98.20
42803;DHT22;28447;48.682;9.022;2023-07-29T14:33:59;26.50;98.70
42803;DHT22;28447;48.682;9.022;2023-07-29T14:36:25;26.20;98.40
42803;DHT22;28447;48.682;9.022;2023-07-29T14:38:51;25.50;98.50
42803;DHT22;28447;48.682;9.022;2023-07-29T14:41:17;24.80;99.40
42803;DHT22;28447;48.682;9.022;2023-07-29T14:43:43;25.20;99.00
42803;DHT22;28447;48.682;9.022;2023-07-29T14:46:09;25.30;99.30
42803;DHT22;28447;48.682;9.022;2023-07-29T14:48:34;24.90;99.90
42803;DHT22;28447;48.682;9.022;2023-07-29T14:51:00;24.90;99.30
42803;DHT22;28447;48.682;9.022;2023-07-29T14:53:26;24.80;99.90
42803;DHT22;28447;48.682;9.022;2023-07-29T14:55:52;25.10;99.80
42803;DHT22;28447;48.682;9.022;2023-07-29T14:58:18;25.30;99.20
42803;DHT22;28447;48.682;9.022;2023-07-29T15:00:44;24.90;99.20
42803;DHT22;28447;48.682;9.022;2023-07-29T15:03:09;24.80;99.50
42803;DHT22;28447;48.682;9.022;2023-07-29T15:05:35;24.60;99.90
42803;DHT22;28447;48.682;9.022;2023-07-29T15:08:01;24.60;99.80
42803;DHT22;28447;48.682;9.022;2023-07-29T15:10:27;24.60;99.90
42803;DHT22;28447;48.682;9.022;2023-07-29T15:12:52;24.60;99.90
42803;DHT22;28447;48.682;9.022;2023-07-29T15:15:18;24.80;99.90
42803;DHT22;28447;48.682;9.022;2023-07-29T15:17:44;25.10;99.50
42803;DHT22;28447;48.682;9.022;2023-07-29T15:20:11;24.90;99.90
42803;DHT22;28447;48.682;9.022;2023-07-29T15:22:36;25.00;99.90
42803;DHT22;28447;48.682;9.022;2023-07-29T15:25:03;24.50;99.90
42803;DHT22;28447;48.682;9.022;2023-07-29T15:27:30;24.30;99.90
42803;DHT22;28447;48.682;9.022;2023-07-29T15:29:56;24.50;99.90
42803;DHT22;28447;48.682;9.022;2023-07-29T15:32:22;24.60;99.90
42803;DHT22;28447;48.682;9.022;2023-07-29T15:34:49;25.40;99.90
42803;DHT22;28447;48.682;9.022;2023-07-29T15:37:15;25.40;99.90
42803;DHT22;28447;48.682;9.022;2023-07-29T15:39:40;25.30;99.70
42803;DHT22;28447;48.682;9.022;2023-07-29T15:42:07;25.60;99.90
42803;DHT22;28447;48.682;9.022;2023-07-29T15:44:33;25.70;99.90
42803;DHT22;28447;48.682;9.022;2023-07-29T15:46:58;26.20;99.10
42803;DHT22;28447;48.682;9.022;2023-07-29T15:49:24;25.60;99.80
42803;DHT22;28447;48.682;9.022;2023-07-29T15:51:50;25.20;99.90
42803;DHT22;28447;48.682;9.022;2023-07-29T15:54:17;24.80;99.90
42803;DHT22;28447;48.682;9.022;2023-07-29T15:56:43;24.70;99.90
42803;DHT22;28447;48.682;9.022;2023-07-29T15:59:10;25.10;99.90
42803;DHT22;28447;48.682;9.022;2023-07-29T16:01:35;26.00;99.90
42803;DHT22;28447;48.682;9.022;2023-07-29T16:04:01;25.80;99.40
42803;DHT22;28447;48.682;9.022;2023-07-29T16:06:27;25.70;99.50
42803;DHT22;28447;48.682;9.022;2023-07-29T16:08:53;25.20;99.90
42803;DHT22;28447;48.682;9.022;2023-07-29T16:11:19;25.50;99.50
42803;DHT22;28447;48.682;9.022;2023-07-29T16:13:46;25.90;99.40
42803;DHT22;28447;48.682;9.022;2023-07-29T16:16:11;25.90;99.40
42803;DHT22;28447;48.682;9.022;2023-07-29T16:18:37;26.50;98.00
42803;DHT22;28447;48.682;9.022;2023-07-29T16:21:04;26.50;97.90
42803;DHT22;28447;48.682;9.022;2023-07-29T16:23:32;26.30;99.30
42803;DHT22;28447;48.682;9.022;2023-07-29T16:25:59;26.50;98.60
42803;DHT22;28447;48.682;9.022;2023-07-29T16:28:25;26.70;98.30
42803;DHT22;28447;48.682;9.022;2023-07-29T16:30:51;25.90;98.30
42803;DHT22;28447;48.682;9.022;2023-07-29T16:33:17;25.70;99.30
42803;DHT22;28447;48.682;9.022;2023-07-29T16:35:43;25.40;99.30
42803;DHT22;28447;48.682;9.022;2023-07-29T16:38:08;25.20;99.90
42803;DHT22;28447;48.682;9.022;2023-07-29T16:40:34;25.50;99.90
42803;DHT22;28447;48.682;9.022;2023-07-29T16:43:00;25.50;99.70
42803;DHT22;28447;48.682;9.022;2023-07-29T16:45:26;25.10;99.90
42803;DHT22;28447;48.682;9.022;2023-07-29T16:47:56;25.10;99.90
42803;DHT22;28447;48.682;9.022;2023-07-29T16:50:22;24.50;99.90
42803;DHT22;28447;48.682;9.022;2023-07-29T16:52:48;24.30;99.90
42803;DHT22;28447;48.682;9.022;2023-07-29T16:55:22;24.20;99.90
42803;DHT22;28447;48.682;9.022;2023-07-29T16:57:48;24.30;99.90
42803;DHT22;28447;48.682;9.022;2023-07-29T17:00:13;23.80;99.90
42803;DHT22;28447;48.682;9.022;2023-07-29T17:02:39;23.70;99.90
42803;DHT22;28447;48.682;9.022;2023-07-29T17:05:05;23.20;99.90
42803;DHT22;28447;48.682;9.022;2023-07-29T17:07:32;22.70;99.90
42803;DHT22;28447;48.682;9.022;2023-07-29T17:09:58;22.30;99.90
42803;DHT22;28447;48.682;9.022;2023-07-29T17:12:24;22.00;99.90
42803;DHT22;28447;48.682;9.022;2023-07-29T17:14:49;21.00;99.90
42803;DHT22;28447;48.682;9.022;2023-07-29T17:17:15;19.50;99.90
42803;DHT22;28447;48.682;9.022;2023-07-29T17:19:41;18.40;99.90
42803;DHT22;28447;48.682;9.022;2023-07-29T17:22:07;18.20;99.90
42803;DHT22;28447;48.682;9.022;2023-07-29T17:24:33;18.70;99.90
42803;DHT22;28447;48.682;9.022;2023-07-29T17:26:59;18.60;99.90
42803;DHT22;28447;48.682;9.022;2023-07-29T17:29:25;18.50;99.90
42803;DHT22;28447;48.682;9.022;2023-07-29T17:31:50;18.60;99.90
42803;DHT22;28447;48.682;9.022;2023-07-29T17:34:16;18.60;99.90
42803;DHT22;28447;48.682;9.022;2023-07-29T17:36:42;18.90;99.90
42803;DHT22;28447;48.682;9.022;2023-07-29T17:39:07;18.60;99.90
42803;DHT22;28447;48.682;9.022;2023-07-29T17:41:33;18.60;99.90
42803;DHT22;28447;48.682;9.022;2023-07-29T17:43:59;18.60;99.90
42803;DHT22;28447;48.682;9.022;2023-07-29T17:46:24;18.50;99.90
42803;DHT22;28447;48.682;9.022;2023-07-29T17:48:50;18.70;99.90
42803;DHT22;28447;48.682;9.022;2023-07-29T17:51:16;18.70;99.90
42803;DHT22;28447;48.682;9.022;2023-07-29T17:53:42;18.60;99.90
42803;DHT22;28447;48.682;9.022;2023-07-29T17:56:08;18.50;99.90
42803;DHT22;28447;48.682;9.022;2023-07-29T17:58:37;18.60;99.90
42803;DHT22;28447;48.682;9.022;2023-07-29T18:01:03;18.70;99.90
42803;DHT22;28447;48.682;9.022;2023-07-29T18:03:29;18.60;99.90
42803;DHT22;28447;48.682;9.022;2023-07-29T18:05:55;18.50;99.90
42803;DHT22;28447;48.682;9.022;2023-07-29T18:08:21;18.60;99.90
42803;DHT22;28447;48.682;9.022;2023-07-29T18:10:47;18.50;99.90
42803;DHT22;28447;48.682;9.022;2023-07-29T18:13:12;18.60;99.90
42803;DHT22;28447;48.682;9.022;2023-07-29T18:15:38;18.60;99.90
42803;DHT22;28447;48.682;9.022;2023-07-29T18:18:04;18.60;99.90
42803;DHT22;28447;48.682;9.022;2023-07-29T18:20:30;18.50;99.90
42803;DHT22;28447;48.682;9.022;2023-07-29T18:22:56;18.40;99.90
42803;DHT22;28447;48.682;9.022;2023-07-29T18:25:27;18.70;99.90
42803;DHT22;28447;48.682;9.022;2023-07-29T18:27:53;18.70;99.90
42803;DHT22;28447;48.682;9.022;2023-07-29T18:30:18;18.60;99.90
42803;DHT22;28447;48.682;9.022;2023-07-29T18:32:44;18.50;99.90
42803;DHT22;28447;48.682;9.022;2023-07-29T18:35:10;18.50;99.90
42803;DHT22;28447;48.682;9.022;2023-07-29T18:37:45;18.60;99.90
42803;DHT22;28447;48.682;9.022;2023-07-29T18:40:12;18.50;99.90
42803;DHT22;28447;48.682;9.022;2023-07-29T18:42:38;18.60;99.90
42803;DHT22;28447;48.682;9.022;2023-07-29T18:45:04;18.60;99.90
42803;DHT22;28447;48.682;9.022;2023-07-29T18:47:30;18.60;99.90
42803;DHT22;28447;48.682;9.022;2023-07-29T18:49:56;18.60;99.90
42803;DHT22;28447;48.682;9.022;2023-07-29T18:52:21;18.70;99.90
42803;DHT22;28447;48.682;9.022;2023-07-29T18:54:47;18.70;99.90
42803;DHT22;28447;48.682;9.022;2023-07-29T18:57:13;18.60;99.90
42803;DHT22;28447;48.682;9.022;2023-07-29T18:59:39;18.60;99.90
42803;DHT22;28447;48.682;9.022;2023-07-29T19:02:05;18.50;99.90
42803;DHT22;28447;48.682;9.022;2023-07-29T19:04:31;18.60;99.90
42803;DHT22;28447;48.682;9.022;2023-07-29T19:06:57;18.60;99.90
42803;DHT22;28447;48.682;9.022;2023-07-29T19:09:23;18.60;99.90
42803;DHT22;28447;48.682;9.022;2023-07-29T19:11:51;18.70;99.90
42803;DHT22;28447;48.682;9.022;2023-07-29T19:14:16;18.70;99.90
42803;DHT22;28447;48.682;9.022;2023-07-29T19:16:42;18.70;99.90
42803;DHT22;28447;48.682;9.022;2023-07-29T19:19:08;18.60;99.90
42803;DHT22;28447;48.682;9.022;2023-07-29T19:21:33;18.60;99.90
42803;DHT22;28447;48.682;9.022;2023-07-29T19:23:59;18.60;99.90
42803;DHT22;28447;48.682;9.022;2023-07-29T19:26:24;18.50;99.90
42803;DHT22;28447;48.682;9.022;2023-07-29T19:28:50;18.60;99.90
42803;DHT22;28447;48.682;9.022;2023-07-29T19:31:16;18.60;99.90
42803;DHT22;28447;48.682;9.022;2023-07-29T19:33:42;18.60;99.90
42803;DHT22;28447;48.682;9.022;2023-07-29T19:36:09;18.60;99.90